Back to Top

Language: 

My Weather Underground Personal Weather Station Historical Data with Graphs...

Delerius Weather Station Historical Data
Daily Summary for April 13, 2017 Units:  Metric    English   Both
« Previous Day
Next Day »
Daily Weekly Monthly Yearly Custom
  High: Low: Average:
Temperature: 12.6 °C 5.8 °C 8.9 °C
Dew Point: 5.7 °C 3 °C 4.3 °C
Humidity: 86 % 59 % 74 %
Wind Speed: 20.9 km/h 0 km/h 12.9 km/h
Wind Gust: 38.6 km/h - -
Wind:- - WNW
Pressure: 1017.2 hPa 1015.5 hPa -
Precipitation: 0 mm    
Historical Graphs
 
 
Tabular Data for April 13, 2017
Time Temperature Dew Point Pressure Wind Wind Speed Wind Gust Humidity Rainfall Rate (Hourly) solar Conditions
00:04 7 °C 3.9 °C 1015.8 hPa WNW 19.3 km/h 32.2 km/h 81 % 0 mm 0 W/m2
00:09 7 °C 3.9 °C 1015.5 hPa WNW 16.1 km/h 32.2 km/h 81 % 0 mm 0 W/m2
00:14 6.9 °C 3.9 °C 1015.5 hPa WNW 14.5 km/h 29 km/h 81 % 0 mm 0 W/m2
00:24 6.9 °C 3.9 °C 1015.5 hPa WNW 16.1 km/h 32.2 km/h 81 % 0 mm 0 W/m2
00:29 6.9 °C 3.9 °C 1015.5 hPa WNW 16.1 km/h 32.2 km/h 81 % 0 mm 0 W/m2
00:34 6.9 °C 3.9 °C 1015.8 hPa WNW 16.1 km/h 32.2 km/h 81 % 0 mm 0 W/m2
00:39 6.9 °C 3.9 °C 1015.8 hPa WNW 16.1 km/h 32.2 km/h 81 % 0 mm 0 W/m2
00:44 6.9 °C 3.9 °C 1015.8 hPa West 16.1 km/h 32.2 km/h 81 % 0 mm 0 W/m2
00:49 6.9 °C 3.9 °C 1015.8 hPa West 12.9 km/h 24.1 km/h 81 % 0 mm 0 W/m2
00:54 6.8 °C 3.8 °C 1015.8 hPa West 8 km/h 19.3 km/h 81 % 0 mm 0 W/m2
00:59 6.8 °C 3.8 °C 1015.8 hPa WNW 9.7 km/h 22.5 km/h 81 % 0 mm 0 W/m2
01:04 6.8 °C 3.8 °C 1015.8 hPa WNW 9.7 km/h 22.5 km/h 81 % 0 mm 0 W/m2
01:09 6.8 °C 3.8 °C 1015.8 hPa WNW 4.8 km/h 19.3 km/h 81 % 0 mm 0 W/m2
01:14 6.7 °C 3.7 °C 1016.1 hPa West 1.6 km/h 11.3 km/h 81 % 0 mm 0 W/m2
01:19 6.6 °C 3.6 °C 1016.1 hPa Calm   3.2 km/h 81 % 0 mm 0 W/m2
01:24 6.4 °C 3.2 °C 1016.1 hPa Calm   3.2 km/h 80 % 0 mm 0 W/m2
01:29 6.3 °C 3.3 °C 1016.1 hPa Calm   9.7 km/h 81 % 0 mm 0 W/m2
01:35 6.2 °C 3 °C 1016.1 hPa WNW 4.8 km/h 17.7 km/h 80 % 0 mm 0 W/m2
01:40 6.2 °C 3 °C 1016.1 hPa WNW 8 km/h 17.7 km/h 80 % 0 mm 0 W/m2
01:45 6.2 °C 3 °C 1016.1 hPa WNW 11.3 km/h 24.1 km/h 80 % 0 mm 0 W/m2
01:50 6.2 °C 3 °C 1015.8 hPa WNW 12.9 km/h 24.1 km/h 80 % 0 mm 0 W/m2
01:55 6.3 °C 3.3 °C 1016.1 hPa NW 11.3 km/h 20.9 km/h 81 % 0 mm 0 W/m2
02:00 6.3 °C 3.3 °C 1016.1 hPa WNW 12.9 km/h 22.5 km/h 81 % 0 mm 0 W/m2
02:05 6.3 °C 3.4 °C 1016.1 hPa WNW 14.5 km/h 24.1 km/h 82 % 0 mm 0 W/m2
02:10 6.4 °C 3.6 °C 1016.1 hPa WNW 16.1 km/h 32.2 km/h 82 % 0 mm 0 W/m2
02:15 6.4 °C 3.6 °C 1016.1 hPa WNW 16.1 km/h 33.8 km/h 82 % 0 mm 0 W/m2
02:20 6.4 °C 3.6 °C 1016.1 hPa WNW 16.1 km/h 33.8 km/h 82 % 0 mm 0 W/m2
02:25 6.4 °C 3.6 °C 1016.1 hPa WNW 17.7 km/h 30.6 km/h 82 % 0 mm 0 W/m2
02:30 6.4 °C 3.6 °C 1015.8 hPa WNW 16.1 km/h 30.6 km/h 82 % 0 mm 0 W/m2
02:35 6.3 °C 3.4 °C 1016.1 hPa WNW 12.9 km/h 22.5 km/h 82 % 0 mm 0 W/m2
02:40 6.3 °C 3.4 °C 1016.1 hPa WNW 12.9 km/h 22.5 km/h 82 % 0 mm 0 W/m2
02:45 6.3 °C 3.6 °C 1016.1 hPa WNW 14.5 km/h 25.7 km/h 83 % 0 mm 0 W/m2
02:50 6.2 °C 3.5 °C 1015.8 hPa WNW 14.5 km/h 25.7 km/h 83 % 0 mm 0 W/m2
02:55 6.2 °C 3.5 °C 1015.8 hPa WNW 16.1 km/h 29 km/h 83 % 0 mm 0 W/m2
03:00 6.2 °C 3.7 °C 1015.8 hPa WNW 17.7 km/h 29 km/h 84 % 0 mm 0 W/m2
03:05 6.2 °C 3.7 °C 1015.8 hPa WNW 16.1 km/h 29 km/h 84 % 0 mm 0 W/m2
03:10 6.2 °C 3.7 °C 1015.8 hPa WNW 16.1 km/h 30.6 km/h 84 % 0 mm 0 W/m2
03:15 6.3 °C 3.8 °C 1015.8 hPa WNW 16.1 km/h 30.6 km/h 84 % 0 mm 0 W/m2
03:20 6.4 °C 3.9 °C 1015.8 hPa WNW 14.5 km/h 29 km/h 84 % 0 mm 0 W/m2
03:25 6.4 °C 3.9 °C 1015.8 hPa WNW 11.3 km/h 29 km/h 84 % 0 mm 0 W/m2
03:30 6.4 °C 3.9 °C 1015.8 hPa West 8 km/h 19.3 km/h 84 % 0 mm 0 W/m2
03:35 6.3 °C 3.8 °C 1015.8 hPa West 6.4 km/h 16.1 km/h 84 % 0 mm 0 W/m2
03:40 6.3 °C 3.8 °C 1015.8 hPa WNW 8 km/h 16.1 km/h 84 % 0 mm 0 W/m2
03:45 6.3 °C 3.9 °C 1015.8 hPa WNW 6.4 km/h 14.5 km/h 85 % 0 mm 0 W/m2
03:50 6.3 °C 3.9 °C 1015.8 hPa WNW 3.2 km/h 12.9 km/h 85 % 0 mm 0 W/m2
03:55 6.2 °C 3.9 °C 1016.1 hPa West 4.8 km/h 16.1 km/h 85 % 0 mm 0 W/m2
04:00 6.2 °C 3.7 °C 1015.8 hPa West 8 km/h 16.1 km/h 84 % 0 mm 0 W/m2
04:05 6.1 °C 3.8 °C 1015.8 hPa WNW 9.7 km/h 22.5 km/h 85 % 0 mm 0 W/m2
04:10 6.1 °C 3.8 °C 1015.5 hPa WNW 14.5 km/h 30.6 km/h 85 % 0 mm 0 W/m2
04:15 6.2 °C 3.7 °C 1015.5 hPa WNW 16.1 km/h 30.6 km/h 84 % 0 mm 0 W/m2
04:20 6.2 °C 3.7 °C 1015.8 hPa WNW 17.7 km/h 38.6 km/h 84 % 0 mm 0 W/m2
04:25 6.2 °C 3.7 °C 1015.8 hPa WNW 17.7 km/h 38.6 km/h 84 % 0 mm 0 W/m2
04:30 6.2 °C 3.7 °C 1015.8 hPa WNW 14.5 km/h 24.1 km/h 84 % 0 mm 0 W/m2
04:35 6.1 °C 3.6 °C 1015.8 hPa WNW 12.9 km/h 20.9 km/h 84 % 0 mm 0 W/m2
04:40 6.1 °C 3.6 °C 1015.8 hPa WNW 14.5 km/h 24.1 km/h 84 % 0 mm 0 W/m2
04:45 6 °C 3.5 °C 1015.5 hPa WNW 12.9 km/h 24.1 km/h 84 % 0 mm 0 W/m2
04:50 6 °C 3.5 °C 1015.5 hPa WNW 14.5 km/h 25.7 km/h 84 % 0 mm 0 W/m2
04:55 5.9 °C 3.4 °C 1015.8 hPa WNW 14.5 km/h 25.7 km/h 84 % 0 mm 0 W/m2
05:00 5.9 °C 3.4 °C 1015.8 hPa WNW 14.5 km/h 22.5 km/h 84 % 0 mm 0 W/m2
05:05 5.9 °C 3.4 °C 1015.8 hPa WNW 12.9 km/h 22.5 km/h 84 % 0 mm 0 W/m2
05:06 5.9 °C 3.6 °C 1015.5 hPa WNW 12.9 km/h 20.9 km/h 85 % 0 mm 0 W/m2
05:12 5.8 °C 3.4 °C 1015.8 hPa WNW 12.9 km/h 20.9 km/h 85 % 0 mm 0 W/m2
05:17 5.8 °C 3.4 °C 1015.8 hPa WNW 9.7 km/h 20.9 km/h 85 % 0 mm 0 W/m2
05:22 5.8 °C 3.4 °C 1015.8 hPa WNW 9.7 km/h 20.9 km/h 85 % 0 mm 0 W/m2
05:27 5.8 °C 3.6 °C 1015.8 hPa NW 11.3 km/h 20.9 km/h 86 % 0 mm 0 W/m2
05:32 5.8 °C 3.6 °C 1015.8 hPa NW 11.3 km/h 20.9 km/h 86 % 0 mm 0 W/m2
05:37 5.9 °C 3.7 °C 1015.8 hPa WNW 9.7 km/h 20.9 km/h 86 % 0 mm 0 W/m2
05:42 5.9 °C 3.7 °C 1015.8 hPa WNW 9.7 km/h 17.7 km/h 86 % 0 mm 0 W/m2
05:47 5.9 °C 3.7 °C 1015.8 hPa WNW 9.7 km/h 19.3 km/h 86 % 0 mm 0 W/m2
05:52 5.9 °C 3.7 °C 1015.8 hPa WNW 11.3 km/h 19.3 km/h 86 % 0 mm 0 W/m2
05:57 5.8 °C 3.6 °C 1015.8 hPa WNW 11.3 km/h 20.9 km/h 86 % 0 mm 0 W/m2
06:02 5.9 °C 3.7 °C 1015.8 hPa WNW 12.9 km/h 22.5 km/h 86 % 0 mm 0 W/m2
06:07 5.9 °C 3.6 °C 1015.8 hPa WNW 12.9 km/h 24.1 km/h 85 % 0 mm 5 W/m2
06:17 5.9 °C 3.6 °C 1015.8 hPa WNW 9.7 km/h 17.7 km/h 85 % 0 mm 12 W/m2
06:22 6.1 °C 3.8 °C 1015.8 hPa WNW 9.7 km/h 17.7 km/h 85 % 0 mm 12 W/m2
06:27 6.1 °C 3.8 °C 1015.8 hPa WNW 9.7 km/h 17.7 km/h 85 % 0 mm 18 W/m2
06:32 6.2 °C 3.9 °C 1015.8 hPa WNW 8 km/h 19.3 km/h 85 % 0 mm 23 W/m2
06:37 6.3 °C 3.9 °C 1015.8 hPa WNW 9.7 km/h 20.9 km/h 85 % 0 mm 21 W/m2
06:42 6.4 °C 4.1 °C 1015.8 hPa WNW 11.3 km/h 20.9 km/h 85 % 0 mm 23 W/m2
06:47 6.4 °C 4.1 °C 1015.8 hPa WNW 12.9 km/h 22.5 km/h 85 % 0 mm 25 W/m2
06:52 6.5 °C 4 °C 1015.8 hPa WNW 12.9 km/h 24.1 km/h 84 % 0 mm 26 W/m2
06:53 6.5 °C 4 °C 1016.1 hPa WNW 12.9 km/h 24.1 km/h 84 % 0 mm 26 W/m2
06:58 6.5 °C 4 °C 1016.1 hPa WNW 11.3 km/h 24.1 km/h 84 % 0 mm 30 W/m2
07:03 6.4 °C 3.9 °C 1015.8 hPa NW 12.9 km/h 24.1 km/h 84 % 0 mm 33 W/m2
07:08 6.5 °C 4 °C 1015.8 hPa WNW 16.1 km/h 33.8 km/h 84 % 0 mm 37 W/m2
07:13 6.5 °C 4 °C 1015.8 hPa WNW 17.7 km/h 33.8 km/h 84 % 0 mm 44 W/m2
07:18 6.6 °C 3.9 °C 1015.8 hPa WNW 17.7 km/h 35.4 km/h 83 % 0 mm 51 W/m2
07:24 6.6 °C 3.9 °C 1016.1 hPa WNW 17.7 km/h 35.4 km/h 83 % 0 mm 60 W/m2
07:29 6.6 °C 3.9 °C 1016.1 hPa WNW 16.1 km/h 25.7 km/h 83 % 0 mm 74 W/m2
07:34 6.7 °C 4 °C 1016.1 hPa WNW 14.5 km/h 29 km/h 83 % 0 mm 97 W/m2
07:39 6.8 °C 4.1 °C 1016.5 hPa WNW 11.3 km/h 29 km/h 83 % 0 mm 186 W/m2
07:44 7 °C 4.3 °C 1016.5 hPa WNW 8 km/h 24.1 km/h 83 % 0 mm 195 W/m2
07:49 7.2 °C 4.3 °C 1016.8 hPa WNW 8 km/h 19.3 km/h 82 % 0 mm 200 W/m2
07:54 7.4 °C 4.3 °C 1016.5 hPa WNW 8 km/h 19.3 km/h 81 % 0 mm 183 W/m2
07:59 7.6 °C 4.6 °C 1016.5 hPa WNW 11.3 km/h 22.5 km/h 81 % 0 mm 158 W/m2
08:04 7.8 °C 4.6 °C 1016.5 hPa WNW 12.9 km/h 29 km/h 80 % 0 mm 167 W/m2
08:05 7.8 °C 4.6 °C 1016.5 hPa WNW 14.5 km/h 29 km/h 80 % 0 mm 125 W/m2
08:10 7.8 °C 4.6 °C 1016.8 hPa WNW 12.9 km/h 29 km/h 80 % 0 mm 125 W/m2
08:15 7.9 °C 4.7 °C 1016.8 hPa WNW 12.9 km/h 30.6 km/h 80 % 0 mm 153 W/m2
08:20 7.9 °C 4.7 °C 1016.8 hPa WNW 14.5 km/h 30.6 km/h 80 % 0 mm 114 W/m2
08:25 7.9 °C 4.7 °C 1016.8 hPa WNW 14.5 km/h 25.7 km/h 80 % 0 mm 214 W/m2
08:30 8 °C 4.8 °C 1016.8 hPa WNW 14.5 km/h 30.6 km/h 80 % 0 mm 116 W/m2
08:35 8.1 °C 4.8 °C 1016.8 hPa WNW 12.9 km/h 30.6 km/h 80 % 0 mm 171 W/m2
08:40 8.1 °C 4.7 °C 1016.8 hPa WNW 14.5 km/h 22.5 km/h 79 % 0 mm 167 W/m2
08:45 8.2 °C 4.8 °C 1016.8 hPa WNW 14.5 km/h 22.5 km/h 79 % 0 mm 105 W/m2
08:51 8.2 °C 4.8 °C 1016.8 hPa WNW 12.9 km/h 19.3 km/h 79 % 0 mm 139 W/m2
08:56 8.2 °C 4.9 °C 1016.8 hPa WNW 14.5 km/h 24.1 km/h 80 % 0 mm 311 W/m2
09:01 8.5 °C 5.2 °C 1016.8 hPa WNW 16.1 km/h 24.1 km/h 80 % 0 mm 462 W/m2
09:06 8.8 °C 5.3 °C 1016.8 hPa WNW 14.5 km/h 24.1 km/h 79 % 0 mm 483 W/m2
09:11 9.3 °C 5.7 °C 1016.8 hPa WNW 14.5 km/h 24.1 km/h 78 % 0 mm 522 W/m2
09:16 9.6 °C 5.6 °C 1016.8 hPa WNW 14.5 km/h 24.1 km/h 76 % 0 mm 450 W/m2
09:21 9.8 °C 5.6 °C 1016.8 hPa WNW 14.5 km/h 24.1 km/h 75 % 0 mm 327 W/m2
09:26 9.8 °C 5.2 °C 1016.8 hPa WNW 14.5 km/h 30.6 km/h 73 % 0 mm 311 W/m2
09:31 9.9 °C 5.3 °C 1016.8 hPa WNW 16.1 km/h 29 km/h 73 % 0 mm 338 W/m2
09:36 10.2 °C 5.4 °C 1016.8 hPa WNW 17.7 km/h 29 km/h 72 % 0 mm 441 W/m2
09:41 10.2 °C 5.2 °C 1016.8 hPa WNW 19.3 km/h 29 km/h 71 % 0 mm 418 W/m2
09:46 10.2 °C 5.4 °C 1016.8 hPa WNW 17.7 km/h 29 km/h 72 % 0 mm 548 W/m2
09:51 10.4 °C 5.2 °C 1016.8 hPa WNW 17.7 km/h 30.6 km/h 70 % 0 mm 559 W/m2
09:56 10.6 °C 5.2 °C 1016.8 hPa WNW 19.3 km/h 37 km/h 69 % 0 mm 313 W/m2
10:01 10.5 °C 5.1 °C 1016.8 hPa WNW 19.3 km/h 37 km/h 69 % 0 mm 450 W/m2
10:06 10.5 °C 5.1 °C 1016.8 hPa WNW 19.3 km/h 37 km/h 69 % 0 mm 615 W/m2
10:11 10.6 °C 5.2 °C 1016.8 hPa WNW 19.3 km/h 32.2 km/h 69 % 0 mm 615 W/m2
10:16 10.8 °C 5.6 °C 1016.8 hPa WNW 19.3 km/h 32.2 km/h 70 % 0 mm 638 W/m2
10:21 10.9 °C 5.2 °C 1016.8 hPa WNW 19.3 km/h 33.8 km/h 68 % 0 mm 624 W/m2
10:26 11.1 °C 5.4 °C 1016.8 hPa WNW 17.7 km/h 33.8 km/h 68 % 0 mm 670 W/m2
10:31 11.2 °C 5.1 °C 1016.8 hPa WNW 17.7 km/h 32.2 km/h 66 % 0 mm 777 W/m2
10:36 11.4 °C 5.1 °C 1016.8 hPa WNW 19.3 km/h 32.2 km/h 65 % 0 mm 367 W/m2
10:41 11.4 °C 4.8 °C 1016.8 hPa WNW 17.7 km/h 33.8 km/h 64 % 0 mm 396 W/m2
10:46 11.3 °C 4.9 °C 1017.2 hPa WNW 17.7 km/h 33.8 km/h 65 % 0 mm 304 W/m2
10:51 11.2 °C 4.8 °C 1017.2 hPa West 17.7 km/h 29 km/h 65 % 0 mm 225 W/m2
10:56 10.9 °C 4.8 °C 1017.2 hPa WNW 16.1 km/h 25.7 km/h 66 % 0 mm 236 W/m2
11:01 10.8 °C 4.9 °C 1017.2 hPa WNW 12.9 km/h 24.1 km/h 67 % 0 mm 348 W/m2
11:06 10.9 °C 5.2 °C 1017.2 hPa WNW 12.9 km/h 24.1 km/h 68 % 0 mm 383 W/m2
11:11 11.3 °C 5.2 °C 1017.2 hPa WNW 14.5 km/h 33.8 km/h 66 % 0 mm 902 W/m2
11:16 11.5 °C 4.7 °C 1017.2 hPa WNW 17.7 km/h 33.8 km/h 63 % 0 mm 446 W/m2
11:21 11.7 °C 5.1 °C 1017.2 hPa WNW 17.7 km/h 30.6 km/h 64 % 0 mm 930 W/m2
11:26 12.2 °C 5.6 °C 1016.8 hPa WNW 16.1 km/h 33.8 km/h 64 % 0 mm 1081 W/m2
11:31 12.6 °C 5.5 °C 1016.8 hPa WNW 19.3 km/h 33.8 km/h 62 % 0 mm 1041 W/m2
11:41 12.4 °C 5.6 °C 1016.8 hPa WNW 16.1 km/h 32.2 km/h 63 % 0 mm 921 W/m2
11:46 12.2 °C 5.1 °C 1016.8 hPa West 16.1 km/h 24.1 km/h 62 % 0 mm 378 W/m2
11:52 11.8 °C 5.2 °C 1016.8 hPa West 16.1 km/h 24.1 km/h 64 % 0 mm 236 W/m2
11:56 11.7 °C 5.1 °C 1016.8 hPa WNW 16.1 km/h 25.7 km/h 64 % 0 mm 329 W/m2
12:02 11.8 °C 5.4 °C 1016.5 hPa WNW 14.5 km/h 25.7 km/h 65 % 0 mm 330 W/m2
12:07 11.8 °C 5 °C 1016.5 hPa West 14.5 km/h 25.7 km/h 63 % 0 mm 345 W/m2
12:12 11.7 °C 4.7 °C 1016.5 hPa WNW 16.1 km/h 30.6 km/h 62 % 0 mm 394 W/m2
12:17 11.6 °C 5 °C 1016.5 hPa WNW 17.7 km/h 30.6 km/h 64 % 0 mm 279 W/m2
12:22 11.6 °C 5 °C 1016.5 hPa WNW 17.7 km/h 33.8 km/h 64 % 0 mm 345 W/m2
12:27 11.8 °C 5.2 °C 1016.5 hPa WNW 17.7 km/h 33.8 km/h 64 % 0 mm 490 W/m2
12:32 11.8 °C 5 °C 1016.5 hPa WNW 17.7 km/h 25.7 km/h 63 % 0 mm 297 W/m2
12:37 11.7 °C 4.9 °C 1016.5 hPa WNW 17.7 km/h 25.7 km/h 63 % 0 mm 403 W/m2
12:42 11.9 °C 4.8 °C 1016.5 hPa WNW 17.7 km/h 25.7 km/h 62 % 0 mm 1023 W/m2
12:47 12.2 °C 4.7 °C 1016.5 hPa WNW 17.7 km/h 32.2 km/h 60 % 0 mm 278 W/m2
12:52 12.2 °C 4.9 °C 1016.5 hPa WNW 17.7 km/h 32.2 km/h 61 % 0 mm 364 W/m2
12:57 12.2 °C 4.7 °C 1016.5 hPa WNW 16.1 km/h 30.6 km/h 60 % 0 mm 396 W/m2
13:02 12.1 °C 4.3 °C 1016.5 hPa WNW 17.7 km/h 30.6 km/h 59 % 0 mm 381 W/m2
13:07 12.2 °C 4.7 °C 1016.5 hPa West 17.7 km/h 30.6 km/h 60 % 0 mm 323 W/m2
13:12 12.2 °C 4.7 °C 1016.5 hPa West 17.7 km/h 30.6 km/h 60 % 0 mm 260 W/m2
13:17 12.1 °C 4.8 °C 1016.5 hPa WNW 17.7 km/h 33.8 km/h 61 % 0 mm 253 W/m2
13:22 11.9 °C 4.6 °C 1016.5 hPa WNW 17.7 km/h 33.8 km/h 61 % 0 mm 329 W/m2
13:27 11.8 °C 4.7 °C 1016.5 hPa WNW 16.1 km/h 25.7 km/h 62 % 0 mm 278 W/m2
13:32 11.7 °C 4.7 °C 1016.5 hPa West 16.1 km/h 24.1 km/h 62 % 0 mm 357 W/m2
13:37 11.7 °C 4.7 °C 1016.5 hPa West 14.5 km/h 24.1 km/h 62 % 0 mm 371 W/m2
13:38 11.7 °C 4.7 °C 1016.5 hPa West 14.5 km/h 24.1 km/h 62 % 0 mm 371 W/m2
13:43 11.8 °C 4.7 °C 1016.5 hPa West 16.1 km/h 30.6 km/h 62 % 0 mm 357 W/m2
13:48 11.8 °C 4.7 °C 1016.5 hPa WNW 16.1 km/h 30.6 km/h 62 % 0 mm 220 W/m2
13:53 11.7 °C 4.7 °C 1016.5 hPa West 16.1 km/h 30.6 km/h 62 % 0 mm 287 W/m2
13:58 11.6 °C 4.6 °C 1016.5 hPa West 19.3 km/h 33.8 km/h 62 % 0 mm 251 W/m2
14:03 11.5 °C 4.4 °C 1016.5 hPa WNW 19.3 km/h 33.8 km/h 62 % 0 mm 269 W/m2
14:08 11.4 °C 4.6 °C 1016.5 hPa WNW 17.7 km/h 32.2 km/h 63 % 0 mm 199 W/m2
14:13 11.4 °C 4.8 °C 1016.5 hPa WNW 14.5 km/h 32.2 km/h 64 % 0 mm 167 W/m2
14:18 11.4 °C 4.8 °C 1016.5 hPa WNW 16.1 km/h 25.7 km/h 64 % 0 mm 246 W/m2
14:23 11.4 °C 4.8 °C 1016.5 hPa WNW 16.1 km/h 25.7 km/h 64 % 0 mm 322 W/m2
14:28 11.6 °C 5 °C 1016.5 hPa WNW 16.1 km/h 25.7 km/h 64 % 0 mm 274 W/m2
14:33 11.6 °C 4.8 °C 1016.5 hPa WNW 14.5 km/h 24.1 km/h 63 % 0 mm 274 W/m2
14:38 11.7 °C 4.9 °C 1016.5 hPa WNW 14.5 km/h 32.2 km/h 63 % 0 mm 285 W/m2
14:43 11.7 °C 4.7 °C 1016.5 hPa WNW 16.1 km/h 32.2 km/h 62 % 0 mm 200 W/m2
14:48 11.5 °C 4.4 °C 1016.5 hPa WNW 17.7 km/h 32.2 km/h 62 % 0 mm 155 W/m2
14:53 11.4 °C 4.6 °C 1016.5 hPa WNW 16.1 km/h 32.2 km/h 63 % 0 mm 186 W/m2
14:58 11.3 °C 4.5 °C 1016.5 hPa WNW 14.5 km/h 30.6 km/h 63 % 0 mm 253 W/m2
15:03 11.3 °C 4.7 °C 1016.5 hPa WNW 16.1 km/h 30.6 km/h 64 % 0 mm 257 W/m2
15:08 11.3 °C 4.5 °C 1016.5 hPa WNW 16.1 km/h 30.6 km/h 63 % 0 mm 281 W/m2
15:13 11.3 °C 4.5 °C 1016.5 hPa WNW 17.7 km/h 32.2 km/h 63 % 0 mm 380 W/m2
15:18 11.5 °C 4.7 °C 1016.5 hPa WNW 19.3 km/h 35.4 km/h 63 % 0 mm 403 W/m2
15:23 11.7 °C 4.7 °C 1016.5 hPa WNW 19.3 km/h 35.4 km/h 62 % 0 mm 403 W/m2
15:28 11.8 °C 5 °C 1016.5 hPa West 19.3 km/h 33.8 km/h 63 % 0 mm 485 W/m2
15:33 12 °C 4.7 °C 1016.5 hPa West 20.9 km/h 30.6 km/h 61 % 0 mm 599 W/m2
15:38 11.9 °C 4.6 °C 1016.5 hPa West 19.3 km/h 30.6 km/h 61 % 0 mm 241 W/m2
15:43 11.8 °C 4.7 °C 1016.5 hPa West 14.5 km/h 29 km/h 62 % 0 mm 192 W/m2
15:48 11.9 °C 4.4 °C 1016.5 hPa WNW 14.5 km/h 29 km/h 60 % 0 mm 160 W/m2
15:53 11.8 °C 4.3 °C 1016.5 hPa WNW 16.1 km/h 30.6 km/h 60 % 0 mm 172 W/m2
15:58 11.6 °C 4.3 °C 1016.5 hPa WNW 17.7 km/h 32.2 km/h 61 % 0 mm 162 W/m2
16:03 11.4 °C 4.4 °C 1016.5 hPa WNW 19.3 km/h 35.4 km/h 62 % 0 mm 144 W/m2
16:08 11.2 °C 4.4 °C 1016.5 hPa WNW 19.3 km/h 35.4 km/h 63 % 0 mm 125 W/m2
16:13 11.1 °C 4.6 °C 1016.5 hPa WNW 19.3 km/h 32.2 km/h 64 % 0 mm 144 W/m2
16:18 10.9 °C 4.3 °C 1016.5 hPa WNW 19.3 km/h 32.2 km/h 64 % 0 mm 188 W/m2
16:23 10.9 °C 4.8 °C 1016.5 hPa West 17.7 km/h 30.6 km/h 66 % 0 mm 176 W/m2
16:28 10.9 °C 4.6 °C 1016.5 hPa WNW 19.3 km/h 30.6 km/h 65 % 0 mm 209 W/m2
16:33 10.8 °C 4.5 °C 1016.5 hPa WNW 19.3 km/h 32.2 km/h 65 % 0 mm 179 W/m2
16:38 10.8 °C 4.5 °C 1016.5 hPa West 19.3 km/h 32.2 km/h 65 % 0 mm 223 W/m2
16:43 10.8 °C 4.5 °C 1016.5 hPa West 17.7 km/h 30.6 km/h 65 % 0 mm 248 W/m2
16:48 10.8 °C 4.5 °C 1016.1 hPa West 19.3 km/h 30.6 km/h 65 % 0 mm 192 W/m2
16:53 10.8 °C 4.5 °C 1016.1 hPa West 19.3 km/h 30.6 km/h 65 % 0 mm 251 W/m2
16:59 10.9 °C 4.8 °C 1016.1 hPa West 16.1 km/h 29 km/h 66 % 0 mm 199 W/m2
17:04 11.1 °C 5 °C 1016.1 hPa WNW 14.5 km/h 22.5 km/h 66 % 0 mm 243 W/m2
17:09 11.2 °C 4.6 °C 1016.1 hPa WNW 16.1 km/h 29 km/h 64 % 0 mm 151 W/m2
17:14 11.2 °C 4.6 °C 1016.1 hPa West 17.7 km/h 29 km/h 64 % 0 mm 139 W/m2
17:19 11 °C 4.7 °C 1016.1 hPa West 17.7 km/h 25.7 km/h 65 % 0 mm 81 W/m2
17:24 10.8 °C 4.5 °C 1016.1 hPa West 16.1 km/h 25.7 km/h 65 % 0 mm 83 W/m2
17:29 10.7 °C 4.4 °C 1016.1 hPa West 16.1 km/h 25.7 km/h 65 % 0 mm 81 W/m2
17:34 10.7 °C 4.4 °C 1016.1 hPa West 14.5 km/h 24.1 km/h 65 % 0 mm 67 W/m2
17:39 10.6 °C 4.5 °C 1016.1 hPa WNW 12.9 km/h 24.1 km/h 66 % 0 mm 76 W/m2
17:44 10.6 °C 4.7 °C 1016.1 hPa West 12.9 km/h 20.9 km/h 67 % 0 mm 54 W/m2
17:49 10.5 °C 4.4 °C 1016.1 hPa West 12.9 km/h 24.1 km/h 66 % 0 mm 49 W/m2
17:54 10.4 °C 4.3 °C 1016.5 hPa West 14.5 km/h 29 km/h 66 % 0 mm 49 W/m2
17:59 10.3 °C 4.2 °C 1016.1 hPa West 14.5 km/h 29 km/h 66 % 0 mm 49 W/m2
18:04 10.3 °C 4.4 °C 1016.5 hPa WNW 14.5 km/h 29 km/h 67 % 0 mm 44 W/m2
18:09 10.2 °C 4.3 °C 1016.5 hPa WNW 12.9 km/h 22.5 km/h 67 % 0 mm 37 W/m2
18:14 10.2 °C 4.6 °C 1016.1 hPa WNW 12.9 km/h 22.5 km/h 68 % 0 mm 46 W/m2
18:19 10.1 °C 4.2 °C 1016.5 hPa WNW 14.5 km/h 24.1 km/h 67 % 0 mm 35 W/m2
18:24 10 °C 4.3 °C 1016.1 hPa West 17.7 km/h 30.6 km/h 68 % 0 mm 37 W/m2
18:29 9.9 °C 4.5 °C 1016.1 hPa WNW 17.7 km/h 30.6 km/h 69 % 0 mm 46 W/m2
18:34 9.8 °C 4.4 °C 1016.1 hPa WNW 16.1 km/h 25.7 km/h 69 % 0 mm 58 W/m2
18:39 9.8 °C 4.4 °C 1016.1 hPa WNW 16.1 km/h 29 km/h 69 % 0 mm 56 W/m2
18:44 9.7 °C 4.3 °C 1016.1 hPa WNW 14.5 km/h 29 km/h 69 % 0 mm 63 W/m2
18:49 9.7 °C 4.3 °C 1016.1 hPa WNW 12.9 km/h 20.9 km/h 69 % 0 mm 58 W/m2
18:54 9.7 °C 4.3 °C 1016.1 hPa WNW 11.3 km/h 20.9 km/h 69 % 0 mm 42 W/m2
18:59 9.7 °C 4.3 °C 1016.1 hPa West 9.7 km/h 20.9 km/h 69 % 0 mm 28 W/m2
19:04 9.7 °C 4.3 °C 1016.1 hPa West 9.7 km/h 17.7 km/h 69 % 0 mm 21 W/m2
19:09 9.7 °C 4.1 °C 1016.1 hPa WNW 9.7 km/h 16.1 km/h 68 % 0 mm 23 W/m2
19:14 9.7 °C 3.9 °C 1016.1 hPa West 11.3 km/h 24.1 km/h 67 % 0 mm 26 W/m2
19:19 9.6 °C 3.8 °C 1016.1 hPa West 12.9 km/h 24.1 km/h 67 % 0 mm 21 W/m2
19:20 9.6 °C 4 °C 1016.1 hPa West 12.9 km/h 24.1 km/h 68 % 0 mm 21 W/m2
19:25 9.6 °C 4 °C 1016.1 hPa West 11.3 km/h 19.3 km/h 68 % 0 mm 19 W/m2
19:30 9.6 °C 4 °C 1016.1 hPa West 11.3 km/h 19.3 km/h 68 % 0 mm 16 W/m2
19:35 9.6 °C 4 °C 1016.1 hPa West 11.3 km/h 17.7 km/h 68 % 0 mm 12 W/m2
19:40 9.5 °C 4.1 °C 1016.1 hPa West 11.3 km/h 19.3 km/h 69 % 0 mm 9 W/m2
19:45 9.5 °C 4.1 °C 1016.1 hPa WNW 11.3 km/h 19.3 km/h 69 % 0 mm 7 W/m2
19:50 9.5 °C 4.1 °C 1016.1 hPa WNW 11.3 km/h 17.7 km/h 69 % 0 mm 7 W/m2
19:55 9.4 °C 4 °C 1016.1 hPa WNW 11.3 km/h 17.7 km/h 69 % 0 mm 5 W/m2
20:00 9.4 °C 4.2 °C 1016.1 hPa WNW 11.3 km/h 17.7 km/h 70 % 0 mm 5 W/m2
20:05 9.3 °C 4.1 °C 1016.1 hPa WNW 9.7 km/h 16.1 km/h 70 % 0 mm 5 W/m2
20:10 9.2 °C 4.2 °C 1016.1 hPa WNW 9.7 km/h 14.5 km/h 71 % 0 mm 0 W/m2
20:15 9.2 °C 4.2 °C 1016.1 hPa WNW 8 km/h 14.5 km/h 71 % 0 mm 0 W/m2
20:20 9.1 °C 4.1 °C 1016.1 hPa WNW 9.7 km/h 14.5 km/h 71 % 0 mm 0 W/m2
20:25 8.9 °C 3.9 °C 1016.1 hPa WNW 9.7 km/h 16.1 km/h 71 % 0 mm 0 W/m2
20:30 8.9 °C 3.9 °C 1016.1 hPa WNW 8 km/h 16.1 km/h 71 % 0 mm 0 W/m2
20:35 8.8 °C 3.8 °C 1016.1 hPa WNW 6.4 km/h 14.5 km/h 71 % 0 mm 0 W/m2
20:41 8.7 °C 3.7 °C 1016.5 hPa WNW 4.8 km/h 11.3 km/h 71 % 0 mm 0 W/m2
20:46 8.6 °C 3.8 °C 1016.5 hPa WNW 4.8 km/h 11.3 km/h 72 % 0 mm 0 W/m2
20:51 8.5 °C 3.7 °C 1016.5 hPa NW 3.2 km/h 11.3 km/h 72 % 0 mm 0 W/m2
20:56 8.4 °C 3.7 °C 1016.5 hPa NW 3.2 km/h 9.7 km/h 72 % 0 mm 0 W/m2
21:01 8.4 °C 3.8 °C 1016.5 hPa WNW 6.4 km/h 14.5 km/h 73 % 0 mm 0 W/m2
21:06 8.3 °C 3.7 °C 1016.5 hPa WNW 8 km/h 14.5 km/h 73 % 0 mm 0 W/m2
21:11 8.2 °C 3.8 °C 1016.5 hPa WNW 8 km/h 14.5 km/h 74 % 0 mm 0 W/m2
21:16 8.2 °C 3.8 °C 1016.5 hPa WNW 6.4 km/h 14.5 km/h 74 % 0 mm 0 W/m2
21:21 8.1 °C 3.7 °C 1016.5 hPa WNW 3.2 km/h 11.3 km/h 74 % 0 mm 0 W/m2
21:26 8.1 °C 3.9 °C 1016.5 hPa WNW 1.6 km/h 11.3 km/h 75 % 0 mm 0 W/m2
21:31 8 °C 3.8 °C 1016.5 hPa WNW 1.6 km/h 11.3 km/h 75 % 0 mm 0 W/m2
21:36 8 °C 3.8 °C 1016.5 hPa NW 1.6 km/h 9.7 km/h 75 % 0 mm 0 W/m2
21:41 8 °C 4 °C 1016.5 hPa NW 1.6 km/h 8 km/h 76 % 0 mm 0 W/m2
21:46 8 °C 4 °C 1016.5 hPa West 1.6 km/h 9.7 km/h 76 % 0 mm 0 W/m2
21:51 8.1 °C 4.1 °C 1016.5 hPa WSW 1.6 km/h 9.7 km/h 76 % 0 mm 0 W/m2
21:56 8.1 °C 4.1 °C 1016.5 hPa Calm   4.8 km/h 76 % 0 mm 0 W/m2
22:01 8.1 °C 4.1 °C 1016.5 hPa Calm   1.6 km/h 76 % 0 mm 0 W/m2
22:06 8.2 °C 4.4 °C 1016.5 hPa Calm   4.8 km/h 77 % 0 mm 0 W/m2
22:11 8.2 °C 4.2 °C 1016.5 hPa SW 1.6 km/h 8 km/h 76 % 0 mm 0 W/m2
22:16 8.1 °C 4.1 °C 1016.5 hPa SW 4.8 km/h 9.7 km/h 76 % 0 mm 0 W/m2
22:21 8.1 °C 4.3 °C 1016.5 hPa SW 3.2 km/h 9.7 km/h 77 % 0 mm 0 W/m2
22:26 8.1 °C 4.3 °C 1016.5 hPa SW 3.2 km/h 9.7 km/h 77 % 0 mm 0 W/m2
22:31 8.1 °C 4.3 °C 1016.5 hPa WSW 4.8 km/h 9.7 km/h 77 % 0 mm 0 W/m2
22:41 8.1 °C 4.3 °C 1016.5 hPa WSW 3.2 km/h 8 km/h 77 % 0 mm 0 W/m2
22:46 8.1 °C 4.3 °C 1016.1 hPa WSW 3.2 km/h 9.7 km/h 77 % 0 mm 0 W/m2
22:51 8.1 °C 4.3 °C 1016.1 hPa WSW 4.8 km/h 11.3 km/h 77 % 0 mm 0 W/m2
22:56 8.1 °C 4.3 °C 1016.1 hPa WSW 4.8 km/h 11.3 km/h 77 % 0 mm 0 W/m2
23:01 8.1 °C 4.5 °C 1016.1 hPa West 4.8 km/h 11.3 km/h 78 % 0 mm 0 W/m2
23:06 8.1 °C 4.5 °C 1016.1 hPa West 4.8 km/h 9.7 km/h 78 % 0 mm 0 W/m2
23:11 8.1 °C 4.5 °C 1016.1 hPa West 3.2 km/h 9.7 km/h 78 % 0 mm 0 W/m2
23:16 8.1 °C 4.7 °C 1016.1 hPa West 3.2 km/h 9.7 km/h 79 % 0 mm 0 W/m2
23:21 8.1 °C 4.7 °C 1016.5 hPa West 3.2 km/h 9.7 km/h 79 % 0 mm 0 W/m2
23:26 8.1 °C 4.7 °C 1016.5 hPa West 3.2 km/h 9.7 km/h 79 % 0 mm 0 W/m2
23:32 8.1 °C 4.7 °C 1016.1 hPa West 4.8 km/h 11.3 km/h 79 % 0 mm 0 W/m2
23:37 8.2 °C 4.8 °C 1016.1 hPa WNW 6.4 km/h 12.9 km/h 79 % 0 mm 0 W/m2
23:42 8.2 °C 4.8 °C 1016.1 hPa WNW 8 km/h 12.9 km/h 79 % 0 mm 0 W/m2
23:47 8.2 °C 4.8 °C 1016.1 hPa WNW 8 km/h 19.3 km/h 79 % 0 mm 0 W/m2
23:52 8.2 °C 4.8 °C 1016.1 hPa WNW 9.7 km/h 19.3 km/h 79 % 0 mm 0 W/m2
23:57 8.2 °C 4.8 °C 1016.1 hPa West 11.3 km/h 17.7 km/h 79 % 0 mm 0 W/m2
Delerius-Weather
Compliments of Weather Underground - 2.25 mb

Data updates at regular intervals.